Historyczne dane pomiarowe

Dodano dane terminowe – wersja testowa.

Dane z okresu 1951-2019

Wersja bazy: 1.34 [2019-03-16, lista zmian], aktualizacja planowana na 2019-04-15

Dane meteo z obszaru Polski uzyskane na podstawie danych udostępnionych przez Instytut Meteorologii i Gospodarki Wodnej – Państwowy Instytut Badawczy.

 

Wybierz Datę:    

       

TemperaturaWilgotnośćWiatrCiśnienieOpadyŚniegCzas trwania zjawisk
 Stacja t tx tn tng RH VA  wxwx mslp ppp RRR   cm mm wxwxwxwxwxwxwx
1987-08-14 15.6 20.6 8.5- 81.8- 6.3 2.0---- 0.0------------
1987-08-13 13.6 18.5 10.5- 91.3- 7.0 2.0---- 0.3------------
1987-08-12 11.2 12.0 10.0- 97.0- 8.0 3.0---- 5.3------------
1987-08-11 12.7 16.0 11.0- 92.5- 8.0 3.0---- 4.4------------
1987-08-10 13.8 17.5 11.5- 96.0- 8.0 2.0---- 7.1------------
1987-08-09 15.8 20.5 9.0- 80.8- 5.3 2.3---- 1.8------------
1987-08-08 13.6 20.0 7.5- 74.5- 4.3 2.0---- 0.0------------
1987-08-07 12.4 17.5 9.7- 83.0- 5.3 3.7---- 0.0------------
1987-08-06 12.8 18.0 6.5- 79.3- 5.3 2.7---- 0.3------------
1987-08-05 12.0 17.5 7.0- 81.3- 6.3 2.0---- 0.0------------
1987-08-04 11.6 19.0 5.0- 84.3- 7.0 2.7---- 0.2------------
1987-08-03 11.7 15.5 8.6- 79.5- 7.0 3.0---- 6.1------------
1987-08-02 14.6 18.0 11.0- 81.3- 8.0 2.0---- 0.4------------
1987-08-01 15.9 20.0 10.0- 85.8- 6.0 3.0---- 6.0------------
1987-07-31 15.3 19.0 13.0- 87.0- 8.0 2.0---- 7.0------------
1987-07-30 16.1 20.7 8.0- 76.3- 6.0 2.0---- 0.0------------
1987-07-29 14.6 19.0 11.0- 88.5- 7.0 2.0---- 1.4------------
1987-07-28 13.5 18.0 9.5- 90.3- 7.0 2.0---- 1.1------------
1987-07-27 11.5 16.0 9.0- 89.0- 5.0 3.0---- 5.7------------
1987-07-26 14.9 20.0 11.0- 83.0- 4.0 2.0---- 1.6------------
1987-07-25 17.9 21.5 14.0- 83.5- 4.3 2.0---- 0.0------------
1987-07-24 20.5 25.0 13.3- 88.3- 4.0 2.0---- 0.0------------
1987-07-23 21.2 26.0 16.5- 90.0- 4.0 2.0---- 0.0------------
1987-07-22 19.4 25.0 13.0- 91.8- 4.3 2.0---- 0.0------------
1987-07-21 19.2 23.5 15.7- 90.3- 7.0 2.0---- 0.0------------
1987-07-20 18.2 22.5 13.7- 79.0- 4.7 2.0---- 5.9------------
1987-07-19 18.6 24.2 10.8- 71.0- 4.0 2.0---- 0.0------------
1987-07-18 19.6 25.0 13.0- 70.8- 3.7 2.0---- 0.0------------
1987-07-17 18.2 24.5 12.0- 78.8- 4.3 2.7---- 0.0------------
1987-07-16 17.0 22.7 10.0- 79.3- 4.3 2.0---- 0.0------------
1987-07-15 15.6 21.0 8.0- 82.3- 4.3 2.3---- 0.0------------
1987-07-14 14.4 18.5 9.0- 88.8- 5.0 3.0---- 0.0------------
1987-07-13 14.8 16.7 11.1- 90.0- 8.0 3.0---- 4.3------------
1987-07-12 13.4 18.0 11.1- 91.5- 8.0 2.0---- 2.0------------
1987-07-11 11.9 16.0 8.7- 86.8- 5.0 2.3---- 2.0------------
1987-07-10 14.4 18.0 11.0- 82.0- 7.0 3.0---- 0.9------------
1987-07-09 17.4 22.7 13.0- 87.8- 7.0 2.0---- 1.3------------
1987-07-08 21.8 27.0 14.0- 71.5- 3.0 2.0---- 0.7------------
1987-07-07 20.3 27.0 8.7- 77.0- 2.7 2.0---- 0.0------------
1987-07-06 17.2 22.6 8.0- 68.3- 3.0 2.0---- 0.0------------
1987-07-05 16.7 21.5 12.0- 71.5- 3.7 2.0---- 0.0------------
1987-07-04 16.2 21.0 10.0- 77.5- 3.0 2.0---- 0.0------------
1987-07-03 16.5 21.5 9.5- 73.8- 3.0 2.0---- 0.0------------
1987-07-02 20.0 23.0 15.0- 82.3- 3.7 3.0---- 0.0------------
1987-07-01 23.6 29.0 18.7- 84.5- 4.3 2.3---- 0.0------------
1987-06-30 21.6 25.0 17.0- 79.8- 4.3 2.0---- 0.0------------
1987-06-29 15.0 20.8 7.0- 81.5- 5.0 2.0---- 0.0------------
1987-06-28 13.8 17.0 11.2- 87.0- 7.0 2.3---- 0.5------------
1987-06-27 16.2 19.0 12.5- 90.8- 8.0 2.7---- 1.5------------
1987-06-26 15.2 20.0 6.8- 82.5- 6.0 2.0---- 1.0------------
1987-06-25 11.1 15.0 9.0- 94.8- 8.0 2.0---- 12.9------------
1987-06-24 17.2 20.2 14.0- 81.5- 3.3 2.0---- 1.9------------
1987-06-23 18.4 24.4 13.0- 79.0- 4.7 2.0---- 0.0------------
1987-06-22 18.2 22.5 11.0- 75.8- 3.0 2.0---- 0.2------------
1987-06-21 16.7 22.6 8.0- 70.8- 4.7 2.0---- 0.0------------
1987-06-20 15.9 20.5 6.8- 69.8- 4.3 2.0---- 0.0------------
1987-06-19 12.3 16.4 7.2- 81.5- 4.3 3.0---- 1.4------------
1987-06-18 12.5 17.2 5.5- 77.8- 5.0 2.0---- 0.0------------
1987-06-17 13.0 15.0 9.5- 84.0- 5.0 2.0---- 0.0------------
1987-06-16 17.3 22.1 10.0- 91.3- 8.0 3.0---- 23.7------------
365.2 ms

 

Źródłem pochodzenia danych jest Instytut Meteorologii i Gospodarki Wodnej – Państwowy Instytut Badawczy. Dane Instytutu Meteorologii i Gospodarki Wodnej – Państwowego Instytutu Badawczego zostały przetworzone.

Dane źródłowe można odnaleźć na stronie https://dane.imgw.pl